Latest Weather Observations for Windorah

IDQ60801

Issued at 11:42 am EST Sunday 18 November 2018 (issued every 10 minutes, with the page automatically refreshed every 10 minutes)

About weather observations | Map of weather stations | Latest weather observations for QLD | Other Formats
Station Details ID: 038076 Name: WINDORAH AIRPORT Lat: -25.41 Lon: 142.66 Height: 132.16 m
Data from the previous 72 hours. | See also: Recent months at Windorah
Date/Time
EST
Temp
°C
App
Temp
°C
Dew
Point
°C
Rel
Hum
%
Delta-T
°C
Wind Press
QNH
hPa
Press
MSL
hPa
Rain since
9am
mm
Dir  Spd
km/h
Gust
km/h
Spd
kts
Gust
kts
18/11:30am 36.0 33.8 10.9 22 14.9 WNW 13 20 7 11 1010.0 1009.2 0.0
18/11:00am 35.6 33.2 11.3 23 14.5 NNE 15 22 8 12 1010.4 1009.6 0.0
18/10:30am 35.0 33.4 11.4 24 14.0 NNE 11 19 6 10 1010.7 1009.9 0.0
18/10:00am 34.0 31.3 11.8 26 13.2 N 17 26 9 14 1010.9 1010.0 0.0
18/09:30am 33.2 31.0 12.2 28 12.5 NNE 15 24 8 13 1011.1 1010.2 0.0
18/09:00am 32.1 30.4 11.3 28 12.2 NE 11 19 6 10 1011.0 1010.1 0.0
18/08:30am 31.3 28.0 9.5 26 12.4 ENE 17 26 9 14 1010.9 1010.0 0.0
18/08:00am 30.5 27.0 8.8 26 12.1 ENE 17 28 9 15 1010.6 1009.8 0.0
18/07:30am 29.9 24.8 3.0 18 13.6 E 19 26 10 14 1010.3 1009.5 0.0
18/07:00am 28.7 23.0 -3.5 12 14.4 ESE 17 22 9 12 1010.2 1009.4 0.0
18/06:30am 27.2 22.0 -5.8 11 14.0 ESE 13 19 7 10 1010.0 1009.2 0.0
18/06:00am 26.4 20.9 -5.3 12 13.5 ESE 15 20 8 11 1009.8 1009.0 0.0
18/05:30am 26.6 21.1 -5.1 12 13.5 SE 15 20 8 11 1009.4 1008.6 0.0
18/05:00am 26.9 21.1 -4.9 12 13.7 SE 17 20 9 11 1009.2 1008.4 0.0
18/04:30am 27.5 21.7 -4.4 12 13.9 SE 17 28 9 15 1008.9 1008.1 0.0
18/04:00am 27.9 22.2 -4.1 12 14.1 SE 17 24 9 13 1009.0 1008.2 0.0
18/03:30am 28.1 22.4 -3.9 12 14.1 SE 17 26 9 14 1008.9 1008.1 0.0
18/03:00am 28.6 22.9 -3.6 12 14.4 SSE 17 22 9 12 1008.8 1008.0 0.0
18/02:30am 29.1 23.5 -3.2 12 14.6 SSE 17 24 9 13 1009.0 1008.2 0.0
18/02:00am 29.7 23.6 -2.7 12 14.8 SSE 20 28 11 15 1009.1 1008.3 0.0
18/01:30am 30.0 24.4 -2.5 12 14.9 SSE 17 24 9 13 1009.4 1008.6 0.0
18/01:00am 30.4 24.4 -3.3 11 15.4 SSE 19 28 10 15 1009.6 1008.8 0.0
18/12:30am 30.8 24.6 -3.0 11 15.5 SSE 20 26 11 14 1009.9 1009.1 0.0
18/12:00am 31.1 25.1 -2.8 11 15.7 SE 19 24 10 13 1010.2 1009.4 0.0
 
Date/Time
EST
Temp
°C
App
Temp
°C
Dew
Point
°C
Rel
Hum
%
Delta-T
°C
Wind Press
QNH
hPa
Press
MSL
hPa
Rain since
9am
mm
Dir  Spd
km/h
Gust
km/h
Spd
kts
Gust
kts
17/11:30pm 31.1 25.7 -1.6 12 15.4 SSE 17 22 9 12 1010.4 1009.6 0.0
17/11:00pm 31.5 26.1 -1.3 12 15.6 SSE 17 24 9 13 1010.5 1009.7 0.0
17/10:30pm 31.9 26.0 -1.0 12 15.7 SSE 20 26 11 14 1010.4 1009.6 0.0
17/10:00pm 32.4 26.5 -0.6 12 16.0 SSE 20 28 11 15 1010.3 1009.5 0.0
17/09:30pm 33.0 26.8 -0.2 12 16.2 SSE 22 28 12 15 1010.0 1009.2 0.0
17/09:00pm 33.7 27.6 0.4 12 16.5 SSE 22 30 12 16 1009.6 1008.8 0.0
17/08:30pm 34.4 26.7 -0.3 11 17.1 SSE 30 39 16 21 1009.2 1008.4 0.0
17/08:00pm 35.1 27.4 0.2 11 17.4 S 30 37 16 20 1008.7 1007.9 0.0
17/07:30pm 35.6 29.9 0.6 11 17.6 S 20 30 11 16 1008.4 1007.6 0.0
17/07:00pm 36.5 31.3 0.0 10 18.3 S 17 20 9 11 1008.2 1007.4 0.0
17/06:30pm 37.2 31.5 0.5 10 18.6 S 20 28 11 15 1007.8 1007.0 0.0
17/06:00pm 38.0 32.7 -0.3 9 19.3 S 17 24 9 13 1007.5 1006.7 0.0
17/05:30pm 38.6 32.8 0.1 9 19.6 S 20 28 11 15 1007.3 1006.5 0.0
17/05:00pm 39.1 34.7 0.5 9 19.9 SW 13 20 7 11 1007.2 1006.4 0.0
17/04:30pm 39.7 34.1 0.9 9 20.1 S 20 30 11 16 1007.2 1006.4 0.0
17/04:00pm 38.6 34.9 0.1 9 19.6 NNW 9 19 5 10 1007.4 1006.6 0.0
17/03:30pm 39.1 35.5 0.5 9 19.8 NNE 9 17 5 9 1007.7 1006.9 0.0
17/03:00pm 39.0 34.6 0.4 9 19.8 S 13 20 7 11 1007.9 1007.1 0.0
17/02:30pm 38.9 34.1 0.3 9 19.7 SSW 15 28 8 15 1008.3 1007.5 0.0
17/02:00pm 38.6 33.8 0.1 9 19.6 SE 15 26 8 14 1008.8 1008.0 0.0
17/01:30pm 38.4 34.9 1.4 10 19.2 WSW 9 15 5 8 1009.4 1008.6 0.0
17/01:00pm 38.5 35.0 1.5 10 19.2 NE 9 15 5 8 1009.9 1009.1 0.0
17/12:30pm 37.4 33.4 0.7 10 18.7 SSW 11 19 6 10 1010.4 1009.6 0.0
17/12:00pm 37.3 32.2 0.6 10 18.7 SE 17 30 9 16 1010.7 1009.9 0.0
17/11:30am 36.4 31.4 -1.5 9 18.5 SSE 15 26 8 14 1011.3 1010.4 0.0
17/11:00am 36.9 31.2 -1.1 9 18.8 SE 19 37 10 20 1011.7 1010.8 0.0
17/10:30am 35.9 30.6 -0.5 10 18.0 ESE 17 26 9 14 1012.1 1011.2 0.0
17/10:00am 34.8 28.5 -1.3 10 17.5 ESE 22 33 12 18 1012.3 1011.5 0.0
17/09:30am 34.2 28.0 -0.4 11 17.0 ESE 22 32 12 17 1012.3 1011.5 0.0
17/09:00am 33.5 26.4 -1.0 11 16.7 ESE 26 37 14 20 1012.3 1011.5 0.0
17/08:30am 32.4 25.8 -0.6 12 16.0 ESE 24 35 13 19 1012.3 1011.5 0.0
17/08:00am 31.7 24.9 1.0 14 15.2 SE 26 37 14 20 1012.4 1011.6 0.0
17/07:30am 31.2 25.4 2.4 16 14.5 SE 22 33 12 18 1012.1 1011.2 0.0
17/07:00am 30.0 25.2 4.6 20 13.2 SSE 19 26 10 14 1011.8 1010.9 0.0
17/06:30am 28.7 25.2 5.5 23 12.2 SSE 13 17 7 9 1011.7 1010.8 0.0
17/06:00am 28.6 24.4 5.5 23 12.1 SSE 17 20 9 11 1011.3 1010.4 0.0
17/05:30am 28.5 25.0 5.4 23 12.1 SSE 13 19 7 10 1011.0 1010.1 0.0
17/05:00am 28.5 24.7 6.0 24 11.9 SSE 15 20 8 11 1010.6 1009.8 0.0
17/04:30am 28.7 24.6 6.1 24 12.0 SSE 17 20 9 11 1010.3 1009.5 0.0
17/04:00am 28.7 24.3 6.7 25 11.8 SSE 19 24 10 13 1010.1 1009.3 0.0
17/03:30am 27.3 25.1 7.7 29 10.6 SSE 9 13 5 7 1009.9 1009.1 0.0
17/03:00am 27.6 25.9 8.5 30 10.5 S 7 11 4 6 1009.7 1008.9 0.0
17/02:30am 29.2 27.1 8.3 27 11.5 ESE 9 19 5 10 1009.9 1009.1 0.0
17/02:00am 29.8 27.7 8.2 26 11.9 ESE 9 13 5 7 1010.0 1009.2 0.0
17/01:30am 30.8 28.2 7.9 24 12.6 ESE 11 13 6 7 1010.4 1009.6 0.0
17/01:00am 29.9 27.4 8.3 26 11.9 ESE 11 15 6 8 1011.1 1010.2 0.0
17/12:30am 30.1 27.7 8.5 26 12.0 E 11 15 6 8 1011.8 1010.9 0.0
17/12:00am 31.0 28.2 8.7 25 12.5 E 13 15 7 8 1012.2 1011.4 0.0
 
Date/Time
EST
Temp
°C
App
Temp
°C
Dew
Point
°C
Rel
Hum
%
Delta-T
°C
Wind Press
QNH
hPa
Press
MSL
hPa
Rain since
9am
mm
Dir  Spd
km/h
Gust
km/h
Spd
kts
Gust
kts
16/11:30pm 31.8 28.3 8.7 24 13.0 ESE 17 22 9 12 1012.5 1011.7 0.0
16/11:00pm 31.6 28.7 9.8 26 12.4 SE 15 20 8 11 1013.1 1012.3 0.0
16/10:30pm 31.4 29.2 10.7 28 12.0 SE 13 17 7 9 1013.1 1012.3 0.0
16/10:00pm 31.7 32.1 12.5 31 11.4 SW 2 9 1 5 1013.1 1012.3 0.0
16/09:30pm 31.2 29.7 13.0 33 10.9 NW 13 20 7 11 1012.9 1012.1 0.0
16/09:00pm 32.8 30.2 11.9 28 12.4 NNW 17 26 9 14 1012.1 1011.2 0.0
16/08:56pm 34.4 31.5 8.2 20 14.8 NNW 13 20 7 11 1011.7 1010.8 0.0
16/08:30pm 35.5 32.3 2.9 13 17.0 S 9 11 5 6 1009.6 1008.8 0.0
16/08:00pm 36.3 33.2 3.5 13 17.4 SE 9 11 5 6 1009.1 1008.3 0.0
16/07:30pm 36.6 33.3 2.6 12 17.8 SE 9 11 5 6 1009.0 1008.2 0.0
16/07:00pm 37.4 33.8 3.2 12 18.1 SE 11 13 6 7 1008.9 1008.1 0.0
16/06:30pm 38.2 34.5 2.6 11 18.8 SE 11 17 6 9 1008.5 1007.7 0.0
16/06:00pm 39.2 35.4 2.0 10 19.6 SSE 11 17 6 9 1008.1 1007.3 0.0
16/05:30pm 38.8 34.6 1.7 10 19.4 SE 13 17 7 9 1008.1 1007.3 0.0
16/05:00pm 39.2 35.1 2.0 10 19.6 SSE 13 17 7 9 1008.2 1007.4 0.0
16/04:30pm 39.4 35.7 2.2 10 19.6 S 11 20 6 11 1008.3 1007.5 0.0
16/04:00pm 39.2 35.8 2.0 10 19.6 WSW 9 15 5 8 1008.4 1007.6 0.0
16/03:30pm 38.5 35.0 1.5 10 19.2 WSW 9 15 5 8 1008.7 1007.9 0.0
16/03:00pm 38.7 34.9 1.6 10 19.3 ENE 11 13 6 7 1008.9 1008.1 0.0
16/02:30pm 39.2 35.1 2.0 10 19.5 SSE 13 24 7 13 1009.4 1008.6 0.0
16/02:00pm 39.5 35.8 2.2 10 19.7 ENE 11 19 6 10 1009.9 1009.1 0.0
16/01:30pm 38.7 35.9 3.0 11 19.0 NW 7 17 4 9 1010.7 1009.9 0.0
16/01:00pm 38.4 35.0 4.0 12 18.6 E 11 20 6 11 1011.2 1010.3 0.0
16/12:30pm 39.5 35.9 4.8 12 19.0 NNE 13 24 7 13 1011.7 1010.8 0.0
16/12:00pm 38.4 33.9 4.0 12 18.6 NNE 17 28 9 15 1012.2 1011.4 0.0
16/11:30am 37.8 33.4 4.7 13 18.0 NE 17 30 9 16 1012.7 1011.9 0.0
16/11:00am 37.1 32.2 4.1 13 17.7 NE 19 30 10 16 1013.1 1012.3 0.0
16/10:30am 36.9 31.0 6.0 15 17.0 ENE 26 39 14 21 1013.3 1012.5 0.0
16/10:00am 36.4 29.9 6.6 16 16.6 ENE 30 41 16 22 1013.5 1012.7 0.0
16/09:30am 35.8 31.3 7.0 17 16.0 ENE 20 30 11 16 1013.8 1013.0 0.0
16/09:00am 35.0 30.5 7.1 18 15.5 ENE 20 28 11 15 1013.8 1013.0 0.0
16/08:30am 33.7 29.2 6.9 19 14.8 ESE 20 28 11 15 1014.1 1013.3 0.0
16/08:00am 32.7 27.8 6.8 20 14.2 ESE 22 32 12 17 1013.9 1013.1 0.0
16/07:30am 31.1 26.2 6.9 22 13.1 ESE 22 30 12 16 1013.9 1013.1 0.0
16/07:00am 29.7 25.4 7.0 24 12.3 ESE 19 28 10 15 1013.8 1013.0 0.0
16/06:30am 28.8 24.8 6.8 25 11.8 SE 17 26 9 14 1013.7 1012.9 0.0
16/06:00am 28.0 24.0 6.7 26 11.3 SE 17 22 9 12 1013.4 1012.6 0.0
16/05:30am 27.3 24.1 6.7 27 10.9 SE 13 19 7 10 1013.0 1012.2 0.0
16/05:00am 27.2 23.9 6.6 27 10.9 SE 13 15 7 8 1012.3 1011.5 0.0
16/04:30am 27.7 24.4 6.5 26 11.2 SE 13 17 7 9 1011.9 1011.0 0.0
16/04:00am 27.9 25.0 6.6 26 11.3 SE 11 15 6 8 1011.7 1010.8 0.0
16/03:30am 27.2 24.3 6.6 27 10.9 SE 11 13 6 7 1011.8 1010.9 0.0
16/03:00am 26.7 24.6 5.6 26 10.9 S 6 9 3 5 1012.0 1011.1 0.0
16/02:30am 27.5 25.3 6.3 26 11.2 SE 7 9 4 5 1011.8 1010.9 0.0
16/02:00am 27.6 25.2 5.2 24 11.6 SSE 7 9 4 5 1011.9 1011.0 0.0
16/01:30am 28.5 25.8 5.4 23 12.1 SSE 9 11 5 6 1012.1 1011.2 0.0
16/01:00am 29.0 26.8 5.1 22 12.5 S 6 7 3 4 1012.5 1011.7 0.0
16/12:30am 31.0 27.5 5.4 20 13.6 SE 13 15 7 8 1012.6 1011.8 0.0
16/12:00am 31.6 28.0 5.2 19 14.0 SE 13 17 7 9 1013.0 1012.2 0.0
 
Date/Time
EST
Temp
°C
App
Temp
°C
Dew
Point
°C
Rel
Hum
%
Delta-T
°C
Wind Press
QNH
hPa
Press
MSL
hPa
Rain since
9am
mm
Dir  Spd
km/h
Gust
km/h
Spd
kts
Gust
kts
15/11:30pm 32.0 28.1 5.5 19 14.1 SE 15 20 8 11 1013.1 1012.3 0.0
15/11:00pm 32.3 28.5 5.7 19 14.3 SE 15 19 8 10 1013.0 1012.2 0.0
15/10:30pm 31.5 29.0 6.5 21 13.5 SE 9 13 5 7 1013.0 1012.2 0.0
15/10:00pm 32.0 29.4 6.2 20 13.9 SE 9 11 5 6 1013.1 1012.3 0.0
15/09:30pm 32.8 30.0 6.9 20 14.2 SE 11 13 6 7 1012.9 1012.1 0.0
15/09:00pm 32.9 30.1 7.0 20 14.2 SE 11 13 6 7 1012.7 1011.9 0.0
15/08:30pm 33.7 31.3 6.9 19 14.8 ESE 9 11 5 6 1012.4 1011.6 0.0
15/08:00pm 34.2 31.7 6.5 18 15.2 ESE 9 11 5 6 1012.3 1011.5 0.0
15/07:30pm 35.2 33.1 6.5 17 15.8 SE 7 9 4 5 1012.1 1011.2 0.0
15/07:00pm 36.2 32.9 6.4 16 16.5 SE 13 17 7 9 1011.9 1011.0 0.0
15/06:30pm 36.8 33.6 6.9 16 16.7 ESE 13 17 7 9 1011.6 1010.7 0.0
15/06:00pm 37.6 36.1 6.6 15 17.3 SSE 4 9 2 5 1011.4 1010.5 0.0
15/05:30pm 37.1 35.3 7.1 16 16.8 SE 6 11 3 6 1011.4 1010.5 0.0
15/05:00pm 37.1 35.3 7.1 16 16.9 SSW 6 11 3 6 1011.4 1010.5 0.0
15/04:30pm 36.9 34.5 7.0 16 16.7 SW 9 15 5 8 1011.5 1010.6 0.0
15/04:00pm 37.1 35.1 7.1 16 16.9 SSW 7 13 4 7 1011.6 1010.7 0.0
15/03:30pm 36.5 34.6 7.5 17 16.3 S 7 13 4 7 1011.8 1010.9 0.0
15/03:00pm 36.6 34.0 7.6 17 16.4 E 11 15 6 8 1012.1 1011.2 0.0
15/02:30pm 37.0 34.4 7.9 17 16.5 N 11 20 6 11 1012.4 1011.6 0.0
15/02:00pm 37.1 35.3 8.0 17 16.6 SSE 7 15 4 8 1012.8 1012.0 0.0
15/01:30pm 36.5 34.2 7.5 17 16.3 N 9 13 5 7 1013.1 1012.3 0.0
15/01:00pm 37.5 34.3 8.3 17 16.7 N 15 30 8 16 1013.5 1012.7 0.0
15/12:30pm 37.6 35.0 9.2 18 16.5 N 13 26 7 14 1013.8 1013.0 0.0
15/12:00pm 35.8 33.0 8.6 19 15.5 NE 13 28 7 15 1014.1 1013.3 0.0

Other Formats:

Comma delimited format used in spreadsheet applications
http://www.bom.gov.au/fwo/IDQ60801/IDQ60801.94489.axf

JavaScript Object Notation format (JSON) in row-major order
http://www.bom.gov.au/fwo/IDQ60801/IDQ60801.94489.json